Wetterdaten: aktuell Dienstag, 01.09.2026 14:40
Datum Zeit Temp. A. Feuchte A. Luftdruck Regen Wind Richtung Richtung Sonnenschein Solar Taupunkt Windchill Windböen
01.09.2026 14:40 22,7 °C 55 % 1020,1 hPa 0,0 l/m² 8,0 km/h NW 315 ° 0 min 200 W/m² 13,2 °C 22,2 °C 16,1 km/h
01.09.2026 14:35 23,5 °C 53 % 1020,1 hPa 0,0 l/m² 8,0 km/h W 270 ° 5 min 819 W/m² 13,4 °C 23,0 °C 17,7 km/h
01.09.2026 14:30 23,7 °C 52 % 1020,2 hPa 0,0 l/m² 9,7 km/h W-NW 292 ° 5 min 884 W/m² 13,2 °C 22,8 °C 14,5 km/h
01.09.2026 14:25 23,6 °C 53 % 1020,3 hPa 0,0 l/m² 12,9 km/h W-NW 292 ° 5 min 877 W/m² 13,4 °C 22,0 °C 27,4 km/h
01.09.2026 14:20 23,4 °C 54 % 1020,1 hPa 0,0 l/m² 8,0 km/h S-SW 202 ° 5 min 925 W/m² 13,6 °C 22,9 °C 17,7 km/h
01.09.2026 14:15 23,4 °C 54 % 1020,3 hPa 0,0 l/m² 4,8 km/h W-SW 247 ° 5 min 837 W/m² 13,6 °C 23,4 °C 14,5 km/h
01.09.2026 14:10 23,9 °C 53 % 1020,2 hPa 0,0 l/m² 4,8 km/h W 270 ° 5 min 912 W/m² 13,7 °C 23,9 °C 12,9 km/h
01.09.2026 14:05 22,7 °C 58 % 1020,2 hPa 0,0 l/m² 8,0 km/h W-SW 247 ° 5 min 874 W/m² 14,0 °C 22,2 °C 27,4 km/h
01.09.2026 14:00 22,5 °C 56 % 1020,3 hPa 0,0 l/m² 8,0 km/h W-SW 247 ° 5 min 923 W/m² 13,3 °C 22,0 °C 22,5 km/h
01.09.2026 13:55 22,1 °C 57 % 1020,4 hPa 0,0 l/m² 6,4 km/h SW 225 ° 0 min 246 W/m² 13,2 °C 22,1 °C 16,1 km/h
01.09.2026 13:50 22,1 °C 58 % 1020,3 hPa 0,0 l/m² 4,8 km/h W 270 ° 0 min 243 W/m² 13,4 °C 22,1 °C 19,3 km/h
01.09.2026 13:45 22,0 °C 57 % 1020,3 hPa 0,0 l/m² 4,8 km/h W-NW 292 ° 0 min 248 W/m² 13,1 °C 22,0 °C 12,9 km/h
01.09.2026 13:40 22,4 °C 58 % 1020,3 hPa 0,0 l/m² 6,4 km/h NW 315 ° 0 min 329 W/m² 13,7 °C 22,4 °C 19,3 km/h
01.09.2026 13:35 23,5 °C 55 % 1020,4 hPa 0,0 l/m² 4,8 km/h O 90 ° 5 min 867 W/m² 13,9 °C 23,5 °C 16,1 km/h
01.09.2026 13:30 23,2 °C 59 % 1020,5 hPa 0,0 l/m² 6,4 km/h S 180 ° 5 min 947 W/m² 14,7 °C 23,2 °C 16,1 km/h
01.09.2026 13:25 23,4 °C 56 % 1020,4 hPa 0,0 l/m² 8,0 km/h S-SW 202 ° 5 min 881 W/m² 14,1 °C 22,9 °C 17,7 km/h
01.09.2026 13:20 23,3 °C 57 % 1020,4 hPa 0,0 l/m² 8,0 km/h W-NW 292 ° 5 min 895 W/m² 14,3 °C 22,8 °C 14,5 km/h
01.09.2026 13:15 22,6 °C 57 % 1020,4 hPa 0,0 l/m² 9,7 km/h S-SW 202 ° 5 min 940 W/m² 13,6 °C 21,6 °C 24,1 km/h
01.09.2026 13:10 22,3 °C 58 % 1020,6 hPa 0,0 l/m² 8,0 km/h S-SW 202 ° 5 min 645 W/m² 13,6 °C 21,8 °C 16,1 km/h
01.09.2026 13:05 22,7 °C 59 % 1020,5 hPa 0,0 l/m² 6,4 km/h W-SW 247 ° 5 min 837 W/m² 14,3 °C 22,7 °C 17,7 km/h
01.09.2026 13:00 23,3 °C 55 % 1020,6 hPa 0,0 l/m² 4,8 km/h SW 225 ° 5 min 907 W/m² 13,7 °C 23,3 °C 20,9 km/h
01.09.2026 12:55 22,6 °C 60 % 1020,6 hPa 0,0 l/m² 8,0 km/h W-SW 247 ° 5 min 881 W/m² 14,4 °C 22,1 °C 14,5 km/h
01.09.2026 12:50 22,4 °C 59 % 1020,5 hPa 0,0 l/m² 4,8 km/h S 180 ° 0 min 241 W/m² 14,0 °C 22,4 °C 12,9 km/h
01.09.2026 12:45 22,7 °C 57 % 1020,6 hPa 0,0 l/m² 6,4 km/h W 270 ° 5 min 882 W/m² 13,7 °C 22,7 °C 14,5 km/h
01.09.2026 12:40 22,7 °C 58 % 1020,6 hPa 0,0 l/m² 11,3 km/h W 270 ° 5 min 872 W/m² 14,0 °C 21,3 °C 22,5 km/h
01.09.2026 12:35 22,7 °C 59 % 1020,5 hPa 0,0 l/m² 8,0 km/h W 270 ° 5 min 891 W/m² 14,3 °C 22,2 °C 17,7 km/h
01.09.2026 12:30 22,1 °C 58 % 1020,6 hPa 0,0 l/m² 8,0 km/h W 270 ° 5 min 872 W/m² 13,4 °C 21,6 °C 29,0 km/h
01.09.2026 12:25 22,6 °C 58 % 1020,5 hPa 0,0 l/m² 6,4 km/h NW 315 ° 5 min 807 W/m² 13,9 °C 22,6 °C 19,3 km/h
01.09.2026 12:20 22,2 °C 59 % 1020,5 hPa 0,0 l/m² 6,4 km/h W 270 ° 5 min 796 W/m² 13,8 °C 22,2 °C 14,5 km/h
01.09.2026 12:15 21,9 °C 59 % 1020,7 hPa 0,0 l/m² 6,4 km/h W-SW 247 ° 5 min 731 W/m² 13,5 °C 21,9 °C 14,5 km/h
01.09.2026 12:10 21,8 °C 62 % 1020,6 hPa 0,0 l/m² 6,4 km/h W-SW 247 ° 5 min 807 W/m² 14,2 °C 21,8 °C 14,5 km/h
01.09.2026 12:05 21,7 °C 65 % 1020,7 hPa 0,0 l/m² 6,4 km/h S 180 ° 5 min 782 W/m² 14,8 °C 21,7 °C 14,5 km/h
01.09.2026 12:00 21,5 °C 61 % 1020,7 hPa 0,0 l/m² 6,4 km/h SW 225 ° 5 min 749 W/m² 13,7 °C 21,5 °C 14,5 km/h
01.09.2026 11:55 21,3 °C 62 % 1020,7 hPa 0,0 l/m² 8,0 km/h W-NW 292 ° 5 min 742 W/m² 13,7 °C 20,7 °C 30,6 km/h
01.09.2026 11:50 21,2 °C 64 % 1020,8 hPa 0,0 l/m² 9,7 km/h S-SW 202 ° 5 min 740 W/m² 14,1 °C 20,1 °C 19,3 km/h
01.09.2026 11:45 21,6 °C 64 % 1020,8 hPa 0,0 l/m² 11,3 km/h W 270 ° 5 min 719 W/m² 14,5 °C 20,1 °C 19,3 km/h
01.09.2026 11:40 21,5 °C 65 % 1020,7 hPa 0,0 l/m² 9,7 km/h NW 315 ° 5 min 780 W/m² 14,6 °C 20,4 °C 19,3 km/h
01.09.2026 11:35 21,1 °C 66 % 1020,8 hPa 0,0 l/m² 6,4 km/h W 270 ° 5 min 772 W/m² 14,5 °C 21,1 °C 19,3 km/h
01.09.2026 11:30 21,3 °C 65 % 1020,8 hPa 0,0 l/m² 9,7 km/h W-NW 292 ° 5 min 759 W/m² 14,4 °C 20,2 °C 20,9 km/h
01.09.2026 11:25 21,2 °C 66 % 1020,8 hPa 0,0 l/m² 6,4 km/h O-NO 67 ° 5 min 729 W/m² 14,6 °C 21,2 °C 19,3 km/h
01.09.2026 11:20 20,9 °C 67 % 1020,9 hPa 0,0 l/m² 8,0 km/h W-NW 292 ° 5 min 721 W/m² 14,5 °C 20,3 °C 17,7 km/h
01.09.2026 11:15 20,6 °C 68 % 1020,8 hPa 0,0 l/m² 11,3 km/h W-NW 292 ° 5 min 654 W/m² 14,5 °C 18,9 °C 17,7 km/h
01.09.2026 11:10 20,2 °C 71 % 1020,9 hPa 0,0 l/m² 8,0 km/h W-SW 247 ° 5 min 687 W/m² 14,8 °C 19,6 °C 17,7 km/h
01.09.2026 11:05 20,2 °C 69 % 1021,0 hPa 0,0 l/m² 8,0 km/h W 270 ° 5 min 682 W/m² 14,3 °C 19,6 °C 19,3 km/h
01.09.2026 11:00 20,2 °C 68 % 1020,9 hPa 0,0 l/m² 6,4 km/h N-NO 22 ° 5 min 664 W/m² 14,1 °C 20,2 °C 19,3 km/h
01.09.2026 10:55 20,4 °C 69 % 1021,0 hPa 0,0 l/m² 8,0 km/h W-SW 247 ° 5 min 652 W/m² 14,5 °C 19,8 °C 16,1 km/h
01.09.2026 10:50 20,0 °C 73 % 1021,0 hPa 0,0 l/m² 8,0 km/h W-SW 247 ° 5 min 635 W/m² 15,0 °C 19,4 °C 17,7 km/h
01.09.2026 10:45 19,7 °C 72 % 1021,0 hPa 0,0 l/m² 8,0 km/h S-SW 202 ° 5 min 610 W/m² 14,5 °C 19,0 °C 14,5 km/h
01.09.2026 10:40 19,7 °C 73 % 1021,0 hPa 0,0 l/m² 8,0 km/h W 270 ° 5 min 622 W/m² 14,7 °C 19,0 °C 17,7 km/h
01.09.2026 10:35 19,4 °C 75 % 1021,0 hPa 0,0 l/m² 3,2 km/h S-SW 202 ° 5 min 619 W/m² 14,8 °C 19,4 °C 8,0 km/h
01.09.2026 10:30 19,3 °C 75 % 1020,9 hPa 0,0 l/m² 6,4 km/h W-SW 247 ° 5 min 628 W/m² 14,8 °C 19,3 °C 16,1 km/h
01.09.2026 10:25 18,8 °C 77 % 1020,9 hPa 0,0 l/m² 11,3 km/h S-SW 202 ° 5 min 640 W/m² 14,7 °C 16,9 °C 17,7 km/h
01.09.2026 10:20 18,7 °C 77 % 1020,9 hPa 0,0 l/m² 11,3 km/h S-SW 202 ° 5 min 615 W/m² 14,6 °C 16,8 °C 16,1 km/h
01.09.2026 10:15 18,8 °C 76 % 1020,9 hPa 0,0 l/m² 4,8 km/h W-SW 247 ° 5 min 608 W/m² 14,5 °C 18,8 °C 11,3 km/h
01.09.2026 10:10 18,8 °C 77 % 1020,8 hPa 0,0 l/m² 3,2 km/h W-SW 247 ° 5 min 578 W/m² 14,7 °C 18,8 °C 6,4 km/h
01.09.2026 10:05 18,3 °C 81 % 1020,8 hPa 0,0 l/m² 6,4 km/h S-SW 202 ° 5 min 570 W/m² 15,0 °C 18,3 °C 14,5 km/h
01.09.2026 10:00 18,3 °C 79 % 1020,7 hPa 0,0 l/m² 8,0 km/h S-SW 202 ° 5 min 503 W/m² 14,6 °C 17,6 °C 14,5 km/h
01.09.2026 09:55 18,7 °C 79 % 1020,5 hPa 0,0 l/m² 4,8 km/h SW 225 ° 5 min 534 W/m² 15,0 °C 18,7 °C 14,5 km/h
01.09.2026 09:50 18,7 °C 80 % 1020,5 hPa 0,0 l/m² 4,8 km/h S 180 ° 5 min 512 W/m² 15,2 °C 18,7 °C 8,0 km/h
01.09.2026 09:45 18,2 °C 81 % 1020,6 hPa 0,0 l/m² 3,2 km/h SW 225 ° 5 min 503 W/m² 14,9 °C 18,2 °C 8,0 km/h
01.09.2026 09:40 17,9 °C 80 % 1020,6 hPa 0,0 l/m² 4,8 km/h W-SW 247 ° 5 min 476 W/m² 14,4 °C 17,9 °C 12,9 km/h
01.09.2026 09:35 17,7 °C 84 % 1020,6 hPa 0,0 l/m² 3,2 km/h S-SW 202 ° 5 min 443 W/m² 15,0 °C 17,7 °C 11,3 km/h
01.09.2026 09:30 17,5 °C 85 % 1020,6 hPa 0,0 l/m² 3,2 km/h S-SW 202 ° 5 min 454 W/m² 14,9 °C 17,5 °C 9,7 km/h
01.09.2026 09:25 17,1 °C 84 % 1020,6 hPa 0,0 l/m² 4,8 km/h S 180 ° 5 min 448 W/m² 14,4 °C 17,1 °C 9,7 km/h
01.09.2026 09:20 16,9 °C 84 % 1020,7 hPa 0,0 l/m² 4,8 km/h W-SW 247 ° 5 min 403 W/m² 14,2 °C 16,9 °C 8,0 km/h
01.09.2026 09:15 16,8 °C 86 % 1020,7 hPa 0,0 l/m² 4,8 km/h S-SW 202 ° 5 min 376 W/m² 14,4 °C 16,8 °C 8,0 km/h
01.09.2026 09:10 16,6 °C 85 % 1020,6 hPa 0,0 l/m² 6,4 km/h S-SW 202 ° 5 min 353 W/m² 14,1 °C 16,6 °C 11,3 km/h
01.09.2026 09:05 16,5 °C 85 % 1020,6 hPa 0,0 l/m² 4,8 km/h S-SW 202 ° 5 min 339 W/m² 14,0 °C 16,5 °C 9,7 km/h
01.09.2026 09:00 16,6 °C 86 % 1020,5 hPa 0,0 l/m² 3,2 km/h SW 225 ° 5 min 315 W/m² 14,2 °C 16,6 °C 6,4 km/h
01.09.2026 08:55 16,5 °C 86 % 1020,4 hPa 0,0 l/m² 1,6 km/h S 180 ° 5 min 323 W/m² 14,1 °C 16,5 °C 8,0 km/h
01.09.2026 08:50 16,2 °C 87 % 1020,4 hPa 0,0 l/m² 1,6 km/h S-SO 157 ° 5 min 329 W/m² 14,0 °C 16,2 °C 8,0 km/h
01.09.2026 08:45 15,8 °C 90 % 1020,5 hPa 0,0 l/m² 0,0 km/h SO 135 ° 5 min 315 W/m² 14,2 °C 15,8 °C 6,4 km/h
01.09.2026 08:40 15,6 °C 91 % 1020,5 hPa 0,0 l/m² 1,6 km/h O-SO 112 ° 5 min 246 W/m² 14,1 °C 15,6 °C 4,8 km/h
01.09.2026 08:35 15,4 °C 92 % 1020,5 hPa 0,0 l/m² 0,0 km/h N 0 ° 5 min 264 W/m² 14,1 °C 15,4 °C 0,0 km/h
01.09.2026 08:30 15,2 °C 92 % 1020,4 hPa 0,0 l/m² 0,0 km/h O-SO 112 ° 0 min 197 W/m² 13,9 °C 15,2 °C 3,2 km/h
01.09.2026 08:25 15,0 °C 93 % 1020,4 hPa 0,0 l/m² 0,0 km/h O-SO 112 ° 5 min 271 W/m² 13,9 °C 15,0 °C 1,6 km/h
01.09.2026 08:20 14,7 °C 94 % 1020,4 hPa 0,0 l/m² 0,0 km/h N 0 ° 5 min 241 W/m² 13,7 °C 14,7 °C 0,0 km/h
01.09.2026 08:15 14,4 °C 94 % 1020,4 hPa 0,0 l/m² 0,0 km/h NO 45 ° 5 min 248 W/m² 13,4 °C 14,4 °C 1,6 km/h
01.09.2026 08:10 14,1 °C 94 % 1020,4 hPa 0,0 l/m² 0,0 km/h N 0 ° 5 min 244 W/m² 13,1 °C 14,1 °C 0,0 km/h
01.09.2026 08:05 13,8 °C 94 % 1020,3 hPa 0,0 l/m² 0,0 km/h N 0 ° 5 min 236 W/m² 12,9 °C 13,8 °C 0,0 km/h
01.09.2026 08:00 13,5 °C 95 % 1020,2 hPa 0,0 l/m² 0,0 km/h N 0 ° 5 min 185 W/m² 12,7 °C 13,5 °C 0,0 km/h
01.09.2026 07:55 13,3 °C 95 % 1020,2 hPa 0,0 l/m² 0,0 km/h NO 45 ° 0 min 76 W/m² 12,5 °C 13,3 °C 1,6 km/h
01.09.2026 07:50 13,1 °C 95 % 1020,3 hPa 0,0 l/m² 0,0 km/h N 0 ° 0 min 116 W/m² 12,3 °C 13,1 °C 0,0 km/h
01.09.2026 07:45 12,9 °C 95 % 1020,1 hPa 0,0 l/m² 0,0 km/h N-NO 22 ° 5 min 141 W/m² 12,1 °C 12,9 °C 4,8 km/h
01.09.2026 07:40 12,7 °C 95 % 1020,1 hPa 0,0 l/m² 0,0 km/h NO 45 ° 0 min 120 W/m² 11,9 °C 12,7 °C 3,2 km/h
01.09.2026 07:35 12,6 °C 94 % 1020,2 hPa 0,0 l/m² 0,0 km/h NO 45 ° 5 min 123 W/m² 11,7 °C 12,6 °C 1,6 km/h
01.09.2026 07:30 12,5 °C 94 % 1020,2 hPa 0,0 l/m² 0,0 km/h N-NO 22 ° 5 min 109 W/m² 11,6 °C 12,5 °C 3,2 km/h
01.09.2026 07:25 12,4 °C 94 % 1020,1 hPa 0,0 l/m² 0,0 km/h N-NO 22 ° 0 min 91 W/m² 11,5 °C 12,4 °C 4,8 km/h
01.09.2026 07:20 12,4 °C 94 % 1020,1 hPa 0,0 l/m² 0,0 km/h N-NO 22 ° 0 min 67 W/m² 11,5 °C 12,4 °C 3,2 km/h
01.09.2026 07:15 12,3 °C 94 % 1020,3 hPa 0,0 l/m² 0,0 km/h NO 45 ° 0 min 53 W/m² 11,4 °C 12,3 °C 1,6 km/h
01.09.2026 07:10 12,3 °C 93 % 1020,0 hPa 0,0 l/m² 1,6 km/h NO 45 ° 0 min 54 W/m² 11,2 °C 12,3 °C 4,8 km/h
01.09.2026 07:05 12,3 °C 93 % 1020,1 hPa 0,0 l/m² 1,6 km/h N-NO 22 ° 0 min 47 W/m² 11,2 °C 12,3 °C 4,8 km/h
01.09.2026 07:00 12,3 °C 93 % 1020,1 hPa 0,0 l/m² 1,6 km/h N-NO 22 ° 0 min 26 W/m² 11,2 °C 12,3 °C 6,4 km/h
01.09.2026 06:55 12,4 °C 93 % 1020,0 hPa 0,0 l/m² 1,6 km/h N-NO 22 ° 0 min 21 W/m² 11,3 °C 12,4 °C 4,8 km/h
01.09.2026 06:50 12,4 °C 93 % 1020,1 hPa 0,0 l/m² 1,6 km/h N-NO 22 ° 0 min 14 W/m² 11,3 °C 12,4 °C 4,8 km/h
01.09.2026 06:45 12,5 °C 93 % 1020,1 hPa 0,0 l/m² 0,0 km/h N-NO 22 ° 0 min 12 W/m² 11,4 °C 12,5 °C 1,6 km/h
01.09.2026 06:40 12,6 °C 93 % 1020,0 hPa 0,0 l/m² 0,0 km/h N-NO 22 ° 0 min 11 W/m² 11,5 °C 12,6 °C 3,2 km/h
01.09.2026 06:35 12,6 °C 92 % 1019,9 hPa 0,0 l/m² 1,6 km/h N-NO 22 ° 0 min 7 W/m² 11,3 °C 12,6 °C 4,8 km/h
01.09.2026 06:30 12,7 °C 92 % 1019,9 hPa 0,0 l/m² 1,6 km/h N-NO 22 ° 0 min 5 W/m² 11,4 °C 12,7 °C 4,8 km/h
01.09.2026 06:25 12,7 °C 92 % 1019,8 hPa 0,0 l/m² 1,6 km/h N-NO 22 ° 0 min 0 W/m² 11,4 °C 12,7 °C 6,4 km/h
01.09.2026 06:20 12,8 °C 92 % 1019,8 hPa 0,0 l/m² 1,6 km/h N-NO 22 ° 0 min 0 W/m² 11,5 °C 12,8 °C 6,4 km/h
01.09.2026 06:15 12,8 °C 92 % 1019,8 hPa 0,0 l/m² 3,2 km/h N-NO 22 ° 0 min 0 W/m² 11,5 °C 12,8 °C 4,8 km/h
01.09.2026 06:10 12,9 °C 92 % 1019,7 hPa 0,0 l/m² 1,6 km/h N-NO 22 ° 0 min 0 W/m² 11,6 °C 12,9 °C 4,8 km/h
01.09.2026 06:05 13,0 °C 92 % 1019,7 hPa 0,0 l/m² 3,2 km/h N-NO 22 ° 0 min 0 W/m² 11,7 °C 13,0 °C 4,8 km/h
01.09.2026 06:00 13,1 °C 91 % 1019,7 hPa 0,0 l/m² 3,2 km/h N-NO 22 ° 0 min 0 W/m² 11,7 °C 13,1 °C 4,8 km/h
01.09.2026 05:55 13,2 °C 91 % 1019,7 hPa 0,0 l/m² 1,6 km/h N-NO 22 ° 0 min 0 W/m² 11,8 °C 13,2 °C 4,8 km/h
01.09.2026 05:50 13,2 °C 91 % 1019,7 hPa 0,0 l/m² 0,0 km/h N 360 ° 0 min 0 W/m² 11,8 °C 13,2 °C 3,2 km/h
01.09.2026 05:45 13,3 °C 91 % 1019,8 hPa 0,0 l/m² 1,6 km/h N 360 ° 0 min 0 W/m² 11,9 °C 13,3 °C 4,8 km/h
01.09.2026 05:40 13,3 °C 91 % 1019,7 hPa 0,0 l/m² 1,6 km/h N 360 ° 0 min 0 W/m² 11,9 °C 13,3 °C 6,4 km/h
01.09.2026 05:35 13,4 °C 91 % 1019,7 hPa 0,0 l/m² 1,6 km/h N 360 ° 0 min 0 W/m² 12,0 °C 13,4 °C 3,2 km/h
01.09.2026 05:30 13,4 °C 90 % 1019,8 hPa 0,0 l/m² 0,0 km/h N 360 ° 0 min 0 W/m² 11,8 °C 13,4 °C 3,2 km/h
01.09.2026 05:25 13,5 °C 90 % 1019,7 hPa 0,0 l/m² 1,6 km/h N 360 ° 0 min 0 W/m² 11,9 °C 13,5 °C 4,8 km/h
01.09.2026 05:20 13,6 °C 90 % 1019,6 hPa 0,0 l/m² 0,0 km/h N 360 ° 0 min 0 W/m² 12,0 °C 13,6 °C 1,6 km/h
01.09.2026 05:15 13,6 °C 90 % 1019,7 hPa 0,0 l/m² 0,0 km/h N 360 ° 0 min 0 W/m² 12,0 °C 13,6 °C 3,2 km/h
01.09.2026 05:10 13,6 °C 90 % 1019,7 hPa 0,0 l/m² 0,0 km/h N 360 ° 0 min 0 W/m² 12,0 °C 13,6 °C 1,6 km/h
01.09.2026 05:05 13,7 °C 90 % 1019,8 hPa 0,0 l/m² 0,0 km/h N 360 ° 0 min 0 W/m² 12,1 °C 13,7 °C 1,6 km/h
01.09.2026 05:00 13,7 °C 90 % 1019,8 hPa 0,0 l/m² 0,0 km/h N 360 ° 0 min 0 W/m² 12,1 °C 13,7 °C 1,6 km/h
01.09.2026 04:55 13,7 °C 90 % 1019,8 hPa 0,0 l/m² 0,0 km/h N 360 ° 0 min 0 W/m² 12,1 °C 13,7 °C 3,2 km/h
01.09.2026 04:50 13,7 °C 90 % 1019,8 hPa 0,0 l/m² 0,0 km/h N 360 ° 0 min 0 W/m² 12,1 °C 13,7 °C 3,2 km/h
01.09.2026 04:45 13,7 °C 90 % 1019,8 hPa 0,0 l/m² 0,0 km/h N 0 ° 0 min 0 W/m² 12,1 °C 13,7 °C 0,0 km/h
01.09.2026 04:40 13,7 °C 90 % 1019,8 hPa 0,0 l/m² 0,0 km/h N 0 ° 0 min 0 W/m² 12,1 °C 13,7 °C 0,0 km/h
01.09.2026 04:35 13,7 °C 90 % 1019,8 hPa 0,0 l/m² 0,0 km/h N 0 ° 0 min 0 W/m² 12,1 °C 13,7 °C 0,0 km/h
01.09.2026 04:30 13,7 °C 90 % 1019,8 hPa 0,0 l/m² 0,0 km/h N 0 ° 0 min 0 W/m² 12,1 °C 13,7 °C 0,0 km/h
01.09.2026 04:25 13,7 °C 90 % 1019,8 hPa 0,0 l/m² 0,0 km/h N 360 ° 0 min 0 W/m² 12,1 °C 13,7 °C 1,6 km/h
01.09.2026 04:20 13,6 °C 89 % 1019,8 hPa 0,0 l/m² 0,0 km/h N-NO 22 ° 0 min 0 W/m² 11,8 °C 13,6 °C 1,6 km/h
01.09.2026 04:15 13,6 °C 89 % 1019,7 hPa 0,0 l/m² 1,6 km/h N-NO 22 ° 0 min 0 W/m² 11,8 °C 13,6 °C 4,8 km/h
01.09.2026 04:10 13,7 °C 89 % 1019,7 hPa 0,0 l/m² 1,6 km/h N-NO 22 ° 0 min 0 W/m² 11,9 °C 13,7 °C 4,8 km/h
01.09.2026 04:05 13,7 °C 88 % 1019,6 hPa 0,0 l/m² 0,0 km/h N 0 ° 0 min 0 W/m² 11,7 °C 13,7 °C 0,0 km/h
01.09.2026 04:00 13,7 °C 88 % 1019,4 hPa 0,0 l/m² 0,0 km/h N 0 ° 0 min 0 W/m² 11,7 °C 13,7 °C 0,0 km/h
01.09.2026 03:55 13,8 °C 87 % 1019,4 hPa 0,0 l/m² 0,0 km/h N 0 ° 0 min 0 W/m² 11,7 °C 13,8 °C 0,0 km/h
01.09.2026 03:50 13,8 °C 87 % 1019,4 hPa 0,0 l/m² 0,0 km/h N-NO 22 ° 0 min 0 W/m² 11,7 °C 13,8 °C 1,6 km/h
01.09.2026 03:45 13,9 °C 87 % 1019,3 hPa 0,0 l/m² 0,0 km/h N 0 ° 0 min 0 W/m² 11,8 °C 13,9 °C 0,0 km/h
01.09.2026 03:40 14,1 °C 86 % 1019,4 hPa 0,0 l/m² 0,0 km/h N 0 ° 0 min 0 W/m² 11,8 °C 14,1 °C 0,0 km/h
01.09.2026 03:35 14,1 °C 86 % 1019,2 hPa 0,0 l/m² 0,0 km/h N 0 ° 0 min 0 W/m² 11,8 °C 14,1 °C 0,0 km/h
01.09.2026 03:30 14,2 °C 86 % 1019,2 hPa 0,0 l/m² 0,0 km/h N 0 ° 0 min 0 W/m² 11,9 °C 14,2 °C 0,0 km/h
01.09.2026 03:25 14,2 °C 86 % 1019,3 hPa 0,0 l/m² 0,0 km/h N 0 ° 0 min 0 W/m² 11,9 °C 14,2 °C 0,0 km/h
01.09.2026 03:20 14,3 °C 86 % 1019,3 hPa 0,0 l/m² 0,0 km/h N 0 ° 0 min 0 W/m² 12,0 °C 14,3 °C 0,0 km/h
01.09.2026 03:15 14,3 °C 85 % 1019,2 hPa 0,0 l/m² 0,0 km/h N 0 ° 0 min 0 W/m² 11,8 °C 14,3 °C 0,0 km/h
01.09.2026 03:10 14,4 °C 85 % 1019,2 hPa 0,0 l/m² 0,0 km/h N-NO 22 ° 0 min 0 W/m² 11,9 °C 14,4 °C 1,6 km/h
01.09.2026 03:05 14,5 °C 85 % 1019,2 hPa 0,0 l/m² 0,0 km/h N-NO 22 ° 0 min 0 W/m² 12,0 °C 14,5 °C 3,2 km/h
01.09.2026 03:00 14,6 °C 84 % 1019,2 hPa 0,0 l/m² 0,0 km/h N-NO 22 ° 0 min 0 W/m² 11,9 °C 14,6 °C 4,8 km/h
01.09.2026 02:55 14,7 °C 84 % 1019,3 hPa 0,0 l/m² 0,0 km/h N 0 ° 0 min 0 W/m² 12,0 °C 14,7 °C 0,0 km/h
01.09.2026 02:50 14,8 °C 83 % 1019,3 hPa 0,0 l/m² 0,0 km/h N-NO 22 ° 0 min 0 W/m² 11,9 °C 14,8 °C 1,6 km/h
01.09.2026 02:45 14,9 °C 82 % 1019,3 hPa 0,0 l/m² 0,0 km/h N 360 ° 0 min 0 W/m² 11,9 °C 14,9 °C 3,2 km/h
01.09.2026 02:40 15,2 °C 82 % 1019,2 hPa 0,0 l/m² 3,2 km/h W-NW 292 ° 0 min 0 W/m² 12,1 °C 15,2 °C 6,4 km/h
01.09.2026 02:35 15,4 °C 81 % 1019,1 hPa 0,0 l/m² 1,6 km/h W 270 ° 0 min 0 W/m² 12,2 °C 15,4 °C 4,8 km/h
01.09.2026 02:30 15,7 °C 80 % 1019,0 hPa 0,0 l/m² 1,6 km/h W 270 ° 0 min 0 W/m² 12,3 °C 15,7 °C 4,8 km/h
01.09.2026 02:25 15,8 °C 80 % 1019,1 hPa 0,0 l/m² 0,0 km/h W 270 ° 0 min 0 W/m² 12,4 °C 15,8 °C 1,6 km/h
01.09.2026 02:20 15,9 °C 80 % 1019,0 hPa 0,0 l/m² 0,0 km/h W 270 ° 0 min 0 W/m² 12,5 °C 15,9 °C 3,2 km/h
01.09.2026 02:15 16,1 °C 80 % 1019,1 hPa 0,0 l/m² 1,6 km/h W 270 ° 0 min 0 W/m² 12,6 °C 16,1 °C 4,8 km/h
01.09.2026 02:10 16,2 °C 79 % 1019,1 hPa 0,0 l/m² 0,0 km/h W 270 ° 0 min 0 W/m² 12,6 °C 16,2 °C 4,8 km/h
01.09.2026 02:05 16,4 °C 78 % 1019,2 hPa 0,0 l/m² 1,6 km/h W 270 ° 0 min 0 W/m² 12,6 °C 16,4 °C 3,2 km/h
01.09.2026 02:00 16,4 °C 78 % 1019,0 hPa 0,0 l/m² 3,2 km/h W 270 ° 0 min 0 W/m² 12,6 °C 16,4 °C 4,8 km/h
01.09.2026 01:55 16,5 °C 78 % 1019,1 hPa 0,0 l/m² 3,2 km/h W 270 ° 0 min 0 W/m² 12,6 °C 16,5 °C 3,2 km/h
01.09.2026 01:50 16,6 °C 78 % 1019,1 hPa 0,0 l/m² 3,2 km/h W 270 ° 0 min 0 W/m² 12,7 °C 16,6 °C 4,8 km/h
01.09.2026 01:45 16,6 °C 78 % 1019,1 hPa 0,0 l/m² 3,2 km/h W 270 ° 0 min 0 W/m² 12,7 °C 16,6 °C 4,8 km/h
01.09.2026 01:40 16,5 °C 78 % 1019,1 hPa 0,0 l/m² 3,2 km/h W 270 ° 0 min 0 W/m² 12,6 °C 16,5 °C 6,4 km/h
01.09.2026 01:35 16,5 °C 78 % 1019,0 hPa 0,0 l/m² 3,2 km/h W 270 ° 0 min 0 W/m² 12,6 °C 16,5 °C 6,4 km/h
01.09.2026 01:30 16,6 °C 78 % 1019,1 hPa 0,0 l/m² 3,2 km/h W-SW 247 ° 0 min 0 W/m² 12,7 °C 16,6 °C 6,4 km/h
01.09.2026 01:25 16,5 °C 77 % 1019,1 hPa 0,0 l/m² 3,2 km/h W 270 ° 0 min 0 W/m² 12,5 °C 16,5 °C 6,4 km/h
01.09.2026 01:20 16,6 °C 78 % 1019,0 hPa 0,0 l/m² 3,2 km/h W 270 ° 0 min 0 W/m² 12,7 °C 16,6 °C 6,4 km/h
01.09.2026 01:15 16,6 °C 77 % 1018,9 hPa 0,0 l/m² 3,2 km/h W 270 ° 0 min 0 W/m² 12,5 °C 16,6 °C 9,7 km/h
01.09.2026 01:10 16,6 °C 77 % 1019,0 hPa 0,0 l/m² 3,2 km/h W-SW 247 ° 0 min 0 W/m² 12,5 °C 16,6 °C 6,4 km/h
01.09.2026 01:05 16,6 °C 77 % 1019,0 hPa 0,0 l/m² 1,6 km/h W-SW 247 ° 0 min 0 W/m² 12,5 °C 16,6 °C 4,8 km/h
01.09.2026 01:00 16,6 °C 77 % 1019,0 hPa 0,0 l/m² 3,2 km/h W-SW 247 ° 0 min 0 W/m² 12,5 °C 16,6 °C 11,3 km/h
01.09.2026 00:55 16,6 °C 77 % 1019,0 hPa 0,0 l/m² 1,6 km/h W-NW 292 ° 0 min 0 W/m² 12,5 °C 16,6 °C 6,4 km/h
01.09.2026 00:50 16,6 °C 77 % 1019,0 hPa 0,0 l/m² 1,6 km/h W-NW 292 ° 0 min 0 W/m² 12,5 °C 16,6 °C 4,8 km/h
01.09.2026 00:45 16,6 °C 77 % 1018,9 hPa 0,0 l/m² 1,6 km/h W-NW 292 ° 0 min 0 W/m² 12,5 °C 16,6 °C 4,8 km/h
01.09.2026 00:40 16,7 °C 77 % 1018,9 hPa 0,0 l/m² 3,2 km/h W-NW 292 ° 0 min 0 W/m² 12,6 °C 16,7 °C 6,4 km/h
01.09.2026 00:35 16,7 °C 77 % 1018,9 hPa 0,0 l/m² 4,8 km/h W-NW 292 ° 0 min 0 W/m² 12,6 °C 16,7 °C 11,3 km/h
01.09.2026 00:30 16,7 °C 77 % 1018,7 hPa 0,0 l/m² 3,2 km/h W-NW 292 ° 0 min 0 W/m² 12,6 °C 16,7 °C 6,4 km/h
01.09.2026 00:25 16,8 °C 77 % 1018,6 hPa 0,0 l/m² 3,2 km/h W-NW 292 ° 0 min 0 W/m² 12,7 °C 16,8 °C 16,1 km/h
01.09.2026 00:20 16,8 °C 76 % 1018,6 hPa 0,0 l/m² 3,2 km/h W-SW 247 ° 0 min 0 W/m² 12,5 °C 16,8 °C 16,1 km/h
01.09.2026 00:15 17,1 °C 74 % 1018,6 hPa 0,0 l/m² 1,6 km/h W-SW 247 ° 0 min 0 W/m² 12,4 °C 17,1 °C 4,8 km/h
01.09.2026 00:10 17,4 °C 73 % 1018,6 hPa 0,0 l/m² 3,2 km/h W-SW 247 ° 0 min 0 W/m² 12,5 °C 17,4 °C 4,8 km/h
01.09.2026 00:05 17,4 °C 73 % 1018,5 hPa 0,0 l/m² 3,2 km/h W-SW 247 ° 0 min 0 W/m² 12,5 °C 17,4 °C 6,4 km/h
31.08.2026 23:59 17,5 °C 73 % 1018,4 hPa 0,0 l/m² 3,2 km/h W-NW 292 ° 0 min 0 W/m² 12,6 °C 17,5 °C 9,7 km/h
31.08.2026 23:55 17,4 °C 73 % 1018,3 hPa 0,0 l/m² 1,6 km/h NW 315 ° 0 min 0 W/m² 12,5 °C 17,4 °C 4,8 km/h
31.08.2026 23:50 17,3 °C 74 % 1018,3 hPa 0,0 l/m² 1,6 km/h NW 315 ° 0 min 0 W/m² 12,6 °C 17,3 °C 4,8 km/h
31.08.2026 23:45 17,4 °C 74 % 1018,3 hPa 0,0 l/m² 0,0 km/h NW 315 ° 0 min 0 W/m² 12,7 °C 17,4 °C 1,6 km/h
31.08.2026 23:40 17,4 °C 75 % 1018,3 hPa 0,0 l/m² 1,6 km/h NW 315 ° 0 min 0 W/m² 12,9 °C 17,4 °C 6,4 km/h
31.08.2026 23:35 17,5 °C 74 % 1018,3 hPa 0,0 l/m² 3,2 km/h W-NW 292 ° 0 min 0 W/m² 12,8 °C 17,5 °C 4,8 km/h
31.08.2026 23:30 17,9 °C 73 % 1018,3 hPa 0,0 l/m² 0,0 km/h W-NW 292 ° 0 min 0 W/m² 13,0 °C 17,9 °C 3,2 km/h
31.08.2026 23:25 18,1 °C 72 % 1018,3 hPa 0,0 l/m² 3,2 km/h W-NW 292 ° 0 min 0 W/m² 13,0 °C 18,1 °C 6,4 km/h
31.08.2026 23:20 18,2 °C 71 % 1018,3 hPa 0,0 l/m² 3,2 km/h W 270 ° 0 min 0 W/m² 12,9 °C 18,2 °C 9,7 km/h
31.08.2026 23:15 18,3 °C 71 % 1018,3 hPa 0,0 l/m² 6,4 km/h W-NW 292 ° 0 min 0 W/m² 12,9 °C 18,3 °C 14,5 km/h
31.08.2026 23:10 18,2 °C 71 % 1018,3 hPa 0,0 l/m² 4,8 km/h NW 315 ° 0 min 0 W/m² 12,9 °C 18,2 °C 12,9 km/h
31.08.2026 23:05 18,2 °C 72 % 1018,0 hPa 0,0 l/m² 3,2 km/h NW 315 ° 0 min 0 W/m² 13,1 °C 18,2 °C 8,0 km/h
31.08.2026 23:00 18,1 °C 71 % 1017,8 hPa 0,0 l/m² 0,0 km/h NW 315 ° 0 min 0 W/m² 12,8 °C 18,1 °C 4,8 km/h
31.08.2026 22:55 18,4 °C 70 % 1017,9 hPa 0,0 l/m² 0,0 km/h N 0 ° 0 min 0 W/m² 12,8 °C 18,4 °C 0,0 km/h
31.08.2026 22:50 18,4 °C 70 % 1017,8 hPa 0,0 l/m² 1,6 km/h W-NW 292 ° 0 min 0 W/m² 12,8 °C 18,4 °C 6,4 km/h
31.08.2026 22:45 18,4 °C 70 % 1017,8 hPa 0,0 l/m² 0,0 km/h W-NW 292 ° 0 min 0 W/m² 12,8 °C 18,4 °C 4,8 km/h
31.08.2026 22:40 18,4 °C 70 % 1017,7 hPa 0,0 l/m² 3,2 km/h W-NW 292 ° 0 min 0 W/m² 12,8 °C 18,4 °C 8,0 km/h
31.08.2026 22:35 18,3 °C 70 % 1017,7 hPa 0,0 l/m² 1,6 km/h W-NW 292 ° 0 min 0 W/m² 12,7 °C 18,3 °C 4,8 km/h
31.08.2026 22:30 18,4 °C 70 % 1017,5 hPa 0,0 l/m² 3,2 km/h W-NW 292 ° 0 min 0 W/m² 12,8 °C 18,4 °C 6,4 km/h
31.08.2026 22:25 18,6 °C 69 % 1017,6 hPa 0,0 l/m² 3,2 km/h NW 315 ° 0 min 0 W/m² 12,8 °C 18,6 °C 6,4 km/h
31.08.2026 22:20 18,8 °C 69 % 1017,4 hPa 0,0 l/m² 6,4 km/h NW 315 ° 0 min 0 W/m² 13,0 °C 18,8 °C 12,9 km/h
31.08.2026 22:15 19,0 °C 68 % 1017,3 hPa 0,0 l/m² 3,2 km/h W-NW 292 ° 0 min 0 W/m² 13,0 °C 19,0 °C 8,0 km/h
31.08.2026 22:10 19,3 °C 67 % 1017,2 hPa 0,0 l/m² 4,8 km/h W-NW 292 ° 0 min 0 W/m² 13,0 °C 19,3 °C 11,3 km/h
31.08.2026 22:05 19,6 °C 66 % 1017,3 hPa 0,0 l/m² 4,8 km/h W 270 ° 0 min 0 W/m² 13,1 °C 19,6 °C 12,9 km/h
31.08.2026 22:00 19,6 °C 66 % 1017,2 hPa 0,0 l/m² 4,8 km/h W 270 ° 0 min 0 W/m² 13,1 °C 19,6 °C 12,9 km/h
31.08.2026 21:55 19,4 °C 66 % 1017,1 hPa 0,0 l/m² 3,2 km/h W-NW 292 ° 0 min 0 W/m² 12,9 °C 19,4 °C 11,3 km/h
31.08.2026 21:50 19,5 °C 65 % 1017,0 hPa 0,0 l/m² 1,6 km/h W-NW 292 ° 0 min 0 W/m² 12,7 °C 19,5 °C 4,8 km/h
31.08.2026 21:45 19,6 °C 65 % 1017,1 hPa 0,0 l/m² 3,2 km/h W 270 ° 0 min 0 W/m² 12,8 °C 19,6 °C 9,7 km/h
31.08.2026 21:40 19,8 °C 64 % 1016,9 hPa 0,0 l/m² 4,8 km/h W 270 ° 0 min 0 W/m² 12,8 °C 19,8 °C 11,3 km/h
31.08.2026 21:35 19,8 °C 64 % 1016,9 hPa 0,0 l/m² 4,8 km/h W-NW 292 ° 0 min 0 W/m² 12,8 °C 19,8 °C 16,1 km/h
31.08.2026 21:30 20,0 °C 63 % 1016,8 hPa 0,0 l/m² 4,8 km/h NW 315 ° 0 min 0 W/m² 12,7 °C 20,0 °C 9,7 km/h
31.08.2026 21:25 20,2 °C 62 % 1016,7 hPa 0,0 l/m² 4,8 km/h W 270 ° 0 min 0 W/m² 12,7 °C 20,2 °C 11,3 km/h
31.08.2026 21:20 20,3 °C 61 % 1016,4 hPa 0,0 l/m² 4,8 km/h W-SW 247 ° 0 min 0 W/m² 12,5 °C 20,3 °C 14,5 km/h
31.08.2026 21:15 20,5 °C 61 % 1016,3 hPa 0,0 l/m² 6,4 km/h W-SW 247 ° 0 min 0 W/m² 12,7 °C 20,5 °C 14,5 km/h
31.08.2026 21:10 20,3 °C 61 % 1016,3 hPa 0,0 l/m² 11,3 km/h W 270 ° 0 min 0 W/m² 12,5 °C 18,6 °C 24,1 km/h
31.08.2026 21:05 19,8 °C 62 % 1016,3 hPa 0,0 l/m² 8,0 km/h W-NW 292 ° 0 min 0 W/m² 12,3 °C 19,1 °C 22,5 km/h
31.08.2026 21:00 19,5 °C 64 % 1016,4 hPa 0,0 l/m² 1,6 km/h W 270 ° 0 min 0 W/m² 12,5 °C 19,5 °C 6,4 km/h
31.08.2026 20:55 19,3 °C 65 % 1016,2 hPa 0,0 l/m² 1,6 km/h W 270 ° 0 min 0 W/m² 12,6 °C 19,3 °C 3,2 km/h
31.08.2026 20:50 19,6 °C 64 % 1016,1 hPa 0,0 l/m² 0,0 km/h N 0 ° 0 min 0 W/m² 12,6 °C 19,6 °C 0,0 km/h
31.08.2026 20:45 19,7 °C 63 % 1016,1 hPa 0,0 l/m² 0,0 km/h W 270 ° 0 min 0 W/m² 12,5 °C 19,7 °C 1,6 km/h
31.08.2026 20:40 19,4 °C 63 % 1016,0 hPa 0,0 l/m² 0,0 km/h W 270 ° 0 min 0 W/m² 12,2 °C 19,4 °C 3,2 km/h
31.08.2026 20:35 19,6 °C 64 % 1015,9 hPa 0,0 l/m² 0,0 km/h N 0 ° 0 min 0 W/m² 12,6 °C 19,6 °C 0,0 km/h
31.08.2026 20:30 19,9 °C 62 % 1015,8 hPa 0,0 l/m² 0,0 km/h N 0 ° 0 min 0 W/m² 12,4 °C 19,9 °C 0,0 km/h
31.08.2026 20:25 19,9 °C 63 % 1015,8 hPa 0,0 l/m² 0,0 km/h W 270 ° 0 min 0 W/m² 12,6 °C 19,9 °C 3,2 km/h
31.08.2026 20:20 20,1 °C 61 % 1015,7 hPa 0,0 l/m² 0,0 km/h N 0 ° 0 min 0 W/m² 12,3 °C 20,1 °C 0,0 km/h
31.08.2026 20:15 20,4 °C 60 % 1015,6 hPa 0,0 l/m² 0,0 km/h N 0 ° 0 min 0 W/m² 12,4 °C 20,4 °C 0,0 km/h
31.08.2026 20:10 20,7 °C 59 % 1015,4 hPa 0,0 l/m² 0,0 km/h N 0 ° 0 min 0 W/m² 12,4 °C 20,7 °C 0,0 km/h
31.08.2026 20:05 21,0 °C 58 % 1015,3 hPa 0,0 l/m² 0,0 km/h N 0 ° 0 min 0 W/m² 12,4 °C 21,0 °C 0,0 km/h
31.08.2026 20:00 21,1 °C 58 % 1015,3 hPa 0,0 l/m² 0,0 km/h N 0 ° 0 min 0 W/m² 12,5 °C 21,1 °C 0,0 km/h
31.08.2026 19:55 21,3 °C 57 % 1015,2 hPa 0,0 l/m² 0,0 km/h N 0 ° 0 min 0 W/m² 12,4 °C 21,3 °C 0,0 km/h
31.08.2026 19:50 21,6 °C 56 % 1015,1 hPa 0,0 l/m² 0,0 km/h W 270 ° 0 min 5 W/m² 12,4 °C 21,6 °C 3,2 km/h
31.08.2026 19:45 21,6 °C 56 % 1014,9 hPa 0,0 l/m² 4,8 km/h W 270 ° 0 min 7 W/m² 12,4 °C 21,6 °C 12,9 km/h
31.08.2026 19:40 21,8 °C 55 % 1014,9 hPa 0,0 l/m² 4,8 km/h W 270 ° 0 min 9 W/m² 12,4 °C 21,8 °C 9,7 km/h
31.08.2026 19:35 22,1 °C 55 % 1014,9 hPa 0,0 l/m² 6,4 km/h W 270 ° 0 min 12 W/m² 12,6 °C 22,1 °C 14,5 km/h
31.08.2026 19:30 22,2 °C 54 % 1014,8 hPa 0,0 l/m² 4,8 km/h W-NW 292 ° 0 min 16 W/m² 12,4 °C 22,2 °C 12,9 km/h
31.08.2026 19:25 22,3 °C 54 % 1014,7 hPa 0,0 l/m² 4,8 km/h W-NW 292 ° 0 min 18 W/m² 12,5 °C 22,3 °C 19,3 km/h
31.08.2026 19:20 22,3 °C 55 % 1014,7 hPa 0,0 l/m² 8,0 km/h W-NW 292 ° 0 min 18 W/m² 12,8 °C 21,8 °C 14,5 km/h
31.08.2026 19:15 22,4 °C 54 % 1014,6 hPa 0,0 l/m² 6,4 km/h W-NW 292 ° 0 min 19 W/m² 12,6 °C 22,4 °C 16,1 km/h
31.08.2026 19:10 22,5 °C 55 % 1014,7 hPa 0,0 l/m² 4,8 km/h W 270 ° 0 min 19 W/m² 13,0 °C 22,5 °C 11,3 km/h
31.08.2026 19:05 22,6 °C 55 % 1014,6 hPa 0,0 l/m² 4,8 km/h W 270 ° 0 min 21 W/m² 13,1 °C 22,6 °C 6,4 km/h
31.08.2026 19:00 22,9 °C 54 % 1014,4 hPa 0,0 l/m² 4,8 km/h W-NW 292 ° 0 min 53 W/m² 13,1 °C 22,9 °C 9,7 km/h
31.08.2026 18:55 23,3 °C 53 % 1014,4 hPa 0,0 l/m² 6,4 km/h W 270 ° 0 min 98 W/m² 13,2 °C 23,3 °C 11,3 km/h
31.08.2026 18:50 23,4 °C 52 % 1014,4 hPa 0,0 l/m² 9,7 km/h W 270 ° 5 min 113 W/m² 13,0 °C 22,5 °C 17,7 km/h
31.08.2026 18:45 23,6 °C 53 % 1014,3 hPa 0,0 l/m² 4,8 km/h W 270 ° 5 min 128 W/m² 13,4 °C 23,6 °C 19,3 km/h
31.08.2026 18:40 23,7 °C 53 % 1014,3 hPa 0,0 l/m² 8,0 km/h W 270 ° 5 min 144 W/m² 13,5 °C 23,2 °C 16,1 km/h
31.08.2026 18:35 23,8 °C 53 % 1014,3 hPa 0,0 l/m² 8,0 km/h W-NW 292 ° 5 min 153 W/m² 13,6 °C 23,3 °C 16,1 km/h
31.08.2026 18:30 23,8 °C 52 % 1014,4 hPa 0,0 l/m² 8,0 km/h W 270 ° 5 min 153 W/m² 13,3 °C 23,3 °C 16,1 km/h
31.08.2026 18:25 23,8 °C 53 % 1014,3 hPa 0,0 l/m² 8,0 km/h W-NW 292 ° 0 min 153 W/m² 13,6 °C 23,3 °C 19,3 km/h
31.08.2026 18:20 24,0 °C 52 % 1014,3 hPa 0,0 l/m² 4,8 km/h W 270 ° 0 min 151 W/m² 13,5 °C 24,0 °C 14,5 km/h
31.08.2026 18:15 23,9 °C 53 % 1014,4 hPa 0,0 l/m² 8,0 km/h W-SW 247 ° 0 min 123 W/m² 13,7 °C 23,4 °C 17,7 km/h
31.08.2026 18:10 24,3 °C 52 % 1014,4 hPa 0,0 l/m² 9,7 km/h W-SW 247 ° 0 min 105 W/m² 13,8 °C 23,5 °C 20,9 km/h
31.08.2026 18:05 24,5 °C 54 % 1014,4 hPa 0,0 l/m² 8,0 km/h W-NW 292 ° 0 min 105 W/m² 14,6 °C 24,1 °C 19,3 km/h
31.08.2026 18:00 24,7 °C 56 % 1014,4 hPa 0,0 l/m² 6,4 km/h W-NW 292 ° 0 min 156 W/m² 15,3 °C 24,7 °C 17,7 km/h
31.08.2026 17:55 24,8 °C 57 % 1014,4 hPa 0,0 l/m² 4,8 km/h W 270 ° 0 min 206 W/m² 15,7 °C 24,8 °C 11,3 km/h
31.08.2026 17:50 24,6 °C 57 % 1014,4 hPa 0,0 l/m² 8,0 km/h W-SW 247 ° 5 min 260 W/m² 15,5 °C 24,2 °C 17,7 km/h
31.08.2026 17:45 24,8 °C 56 % 1014,4 hPa 0,0 l/m² 8,0 km/h W-SW 247 ° 5 min 308 W/m² 15,4 °C 24,4 °C 16,1 km/h
31.08.2026 17:40 24,8 °C 58 % 1014,4 hPa 0,0 l/m² 6,4 km/h W 270 ° 5 min 374 W/m² 16,0 °C 24,8 °C 12,9 km/h
31.08.2026 17:35 24,5 °C 57 % 1014,4 hPa 0,0 l/m² 6,4 km/h SW 225 ° 5 min 396 W/m² 15,4 °C 24,5 °C 12,9 km/h
31.08.2026 17:30 24,4 °C 57 % 1014,5 hPa 0,0 l/m² 6,4 km/h W-NW 292 ° 5 min 425 W/m² 15,3 °C 24,4 °C 14,5 km/h
31.08.2026 17:25 24,6 °C 57 % 1014,6 hPa 0,0 l/m² 6,4 km/h W 270 ° 5 min 411 W/m² 15,5 °C 24,6 °C 17,7 km/h
31.08.2026 17:20 24,7 °C 56 % 1014,5 hPa 0,0 l/m² 8,0 km/h W-NW 292 ° 5 min 399 W/m² 15,3 °C 24,3 °C 14,5 km/h
31.08.2026 17:15 24,9 °C 56 % 1014,6 hPa 0,0 l/m² 6,4 km/h W-SW 247 ° 5 min 403 W/m² 15,5 °C 24,9 °C 12,9 km/h
31.08.2026 17:10 24,7 °C 57 % 1014,6 hPa 0,0 l/m² 8,0 km/h W-SW 247 ° 5 min 427 W/m² 15,6 °C 24,3 °C 14,5 km/h
31.08.2026 17:05 24,8 °C 55 % 1014,6 hPa 0,0 l/m² 9,7 km/h SW 225 ° 5 min 431 W/m² 15,1 °C 24,0 °C 16,1 km/h
31.08.2026 17:00 24,9 °C 56 % 1014,6 hPa 0,0 l/m² 6,4 km/h W-SW 247 ° 5 min 439 W/m² 15,5 °C 24,9 °C 11,3 km/h
31.08.2026 16:55 24,8 °C 55 % 1014,6 hPa 0,0 l/m² 6,4 km/h W 270 ° 5 min 457 W/m² 15,1 °C 24,8 °C 17,7 km/h
31.08.2026 16:50 24,9 °C 56 % 1014,5 hPa 0,0 l/m² 8,0 km/h W-NW 292 ° 5 min 459 W/m² 15,5 °C 24,5 °C 14,5 km/h
31.08.2026 16:45 24,8 °C 57 % 1014,5 hPa 0,0 l/m² 9,7 km/h W-NW 292 ° 5 min 483 W/m² 15,7 °C 24,0 °C 14,5 km/h
31.08.2026 16:40 24,9 °C 57 % 1014,5 hPa 0,0 l/m² 11,3 km/h W-NW 292 ° 5 min 489 W/m² 15,8 °C 23,8 °C 19,3 km/h
31.08.2026 16:35 25,1 °C 55 % 1014,4 hPa 0,0 l/m² 6,4 km/h NW 315 ° 5 min 499 W/m² 15,4 °C 25,1 °C 16,1 km/h
31.08.2026 16:30 24,9 °C 55 % 1014,5 hPa 0,0 l/m² 8,0 km/h W-NW 292 ° 5 min 513 W/m² 15,2 °C 24,5 °C 14,5 km/h
31.08.2026 16:25 24,7 °C 56 % 1014,6 hPa 0,0 l/m² 11,3 km/h W 270 ° 5 min 524 W/m² 15,3 °C 23,6 °C 19,3 km/h
31.08.2026 16:20 24,7 °C 56 % 1014,6 hPa 0,0 l/m² 11,3 km/h W-NW 292 ° 5 min 538 W/m² 15,3 °C 23,6 °C 20,9 km/h
31.08.2026 16:15 24,7 °C 57 % 1014,5 hPa 0,0 l/m² 9,7 km/h W-NW 292 ° 5 min 545 W/m² 15,6 °C 23,9 °C 14,5 km/h
31.08.2026 16:10 24,5 °C 57 % 1014,5 hPa 0,0 l/m² 4,8 km/h W-SW 247 ° 5 min 563 W/m² 15,4 °C 24,5 °C 9,7 km/h
31.08.2026 16:05 24,6 °C 56 % 1014,6 hPa 0,0 l/m² 6,4 km/h W 270 ° 5 min 610 W/m² 15,2 °C 24,6 °C 14,5 km/h
31.08.2026 16:00 24,7 °C 57 % 1014,7 hPa 0,0 l/m² 6,4 km/h W-NW 292 ° 5 min 619 W/m² 15,6 °C 24,7 °C 16,1 km/h
31.08.2026 15:55 24,9 °C 57 % 1014,8 hPa 0,0 l/m² 4,8 km/h W-NW 292 ° 5 min 599 W/m² 15,8 °C 24,9 °C 12,9 km/h
31.08.2026 15:50 24,4 °C 58 % 1014,8 hPa 0,0 l/m² 8,0 km/h W 270 ° 5 min 619 W/m² 15,6 °C 24,0 °C 20,9 km/h
31.08.2026 15:45 24,2 °C 57 % 1014,9 hPa 0,0 l/m² 9,7 km/h W-SW 247 ° 5 min 661 W/m² 15,1 °C 23,3 °C 17,7 km/h
31.08.2026 15:40 23,7 °C 58 % 1015,0 hPa 0,0 l/m² 11,3 km/h W 270 ° 0 min 135 W/m² 14,9 °C 22,4 °C 17,7 km/h
31.08.2026 15:35 24,1 °C 60 % 1014,9 hPa 0,0 l/m² 8,0 km/h W 270 ° 5 min 673 W/m² 15,8 °C 23,7 °C 22,5 km/h
31.08.2026 15:30 24,5 °C 58 % 1015,0 hPa 0,0 l/m² 11,3 km/h W-NW 292 ° 5 min 671 W/m² 15,7 °C 23,3 °C 20,9 km/h
31.08.2026 15:25 24,6 °C 56 % 1015,0 hPa 0,0 l/m² 12,9 km/h W-NW 292 ° 5 min 705 W/m² 15,2 °C 23,2 °C 22,5 km/h
31.08.2026 15:20 24,5 °C 59 % 1015,0 hPa 0,0 l/m² 8,0 km/h W 270 ° 5 min 714 W/m² 15,9 °C 24,1 °C 16,1 km/h
31.08.2026 15:15 24,4 °C 59 % 1014,9 hPa 0,0 l/m² 6,4 km/h W-SW 247 ° 5 min 689 W/m² 15,9 °C 24,4 °C 14,5 km/h
31.08.2026 15:10 24,4 °C 58 % 1014,9 hPa 0,0 l/m² 8,0 km/h NW 315 ° 5 min 715 W/m² 15,6 °C 24,0 °C 17,7 km/h
31.08.2026 15:05 24,0 °C 60 % 1015,0 hPa 0,0 l/m² 9,7 km/h W-SW 247 ° 5 min 752 W/m² 15,7 °C 23,1 °C 17,7 km/h
31.08.2026 15:00 23,8 °C 60 % 1015,1 hPa 0,0 l/m² 12,9 km/h W-SW 247 ° 5 min 766 W/m² 15,6 °C 22,2 °C 25,7 km/h
_ Min-Zeit 07:00 18:10 18:20 - 19:50 - - - - 07:00 07:00 19:55
Minimum _ 12,3 °C 52 % 1014,3 hPa - 0,0 km/h - - - - 11,2 °C 12,3 °C 0,0 km/h
_ Max-Zeit 16:00 07:40 10:35 15:00 15:00 - - 15:00 13:30 17:40 16:35 11:55
Maximum _ 25,1 °C 95 % 1021,0 hPa 0,0 l/m² 12,9 km/h
W-SW
- - 5 min 947 W/m² 16,0 °C 25,1 °C 30,6 km/h
W
Durchschnitt _ 19,2 °C 71 % 1018,1 hPa #0,0 l/m² 4,8 km/h W - #6:25 h 503 W/m² 13,4 °C 18,9 °C 11,0 km/h